Time;durP1;ratioP1;P1;durP2;ratioP2;P2;SDS_P1;SDS_P2;PMS_P1;PMS_P2;Temp;Humidity;BMP_temperature;BMP_pressure;BME280_temperature;BME280_humidity;BME280_pressure;Samples;Min_cycle;Max_cycle;Signal;HPM_P1;HPM_P2
2021/08/30 00:01:04;;;;;;;22.45;13.73;;;;;;;;;;5032241;28;20072;-92
2021/08/30 00:03:31;;;;;;;24.48;13.70;;;;;;;;;;5036857;28;20052;-92
2021/08/30 00:05:59;;;;;;;26.88;14.82;;;;;;;;;;5034065;28;20066;-92
2021/08/30 00:08:26;;;;;;;25.90;13.60;;;;;;;;;;5024887;28;20713;-93
2021/08/30 00:10:53;;;;;;;26.67;13.38;;;;;;;;;;5037362;28;20057;-93
2021/08/30 00:13:25;;;;;;;27.58;14.18;;;;;;;;;;5036730;28;20040;-92
2021/08/30 00:15:56;;;;;;;23.77;13.63;;;;;;;;;;5055608;28;20077;-91
2021/08/30 00:18:24;;;;;;;23.38;14.30;;;;;;;;;;5037632;28;20057;-92
2021/08/30 00:20:53;;;;;;;25.67;13.82;;;;;;;;;;5037887;28;20494;-93
2021/08/30 00:23:21;;;;;;;23.00;13.45;;;;;;;;;;5029714;28;20053;-92
2021/08/30 00:25:50;;;;;;;36.35;14.82;;;;;;;;;;5036292;28;20088;-91
2021/08/30 00:28:17;;;;;;;27.80;15.18;;;;;;;;;;5032278;28;20053;-93
2021/08/30 00:30:45;;;;;;;31.10;15.10;;;;;;;;;;5034972;28;20087;-92
2021/08/30 00:33:12;;;;;;;25.67;15.00;;;;;;;;;;5040430;28;20053;-93
2021/08/30 00:35:40;;;;;;;29.65;15.73;;;;;;;;;;5041210;28;20145;-90
2021/08/30 00:38:08;;;;;;;24.48;14.40;;;;;;;;;;5036237;28;20546;-91
2021/08/30 00:40:35;;;;;;;32.20;16.25;;;;;;;;;;5027900;28;20547;-89
2021/08/30 00:43:03;;;;;;;29.83;15.90;;;;;;;;;;5035904;28;20078;-89
2021/08/30 00:45:35;;;;;;;27.15;15.20;;;;;;;;;;5036396;28;20774;-92
2021/08/30 00:48:04;;;;;;;24.10;14.55;;;;;;;;;;5054124;28;20465;-90
2021/08/30 00:50:32;;;;;;;38.30;16.30;;;;;;;;;;5035805;28;20061;-92
2021/08/30 00:52:59;;;;;;;26.15;16.15;;;;;;;;;;5027992;28;20128;-90
2021/08/30 00:55:26;;;;;;;32.63;16.20;;;;;;;;;;5045031;28;20048;-90
2021/08/30 00:57:54;;;;;;;30.52;16.58;;;;;;;;;;5043451;28;20080;-90
2021/08/30 01:00:21;;;;;;;30.75;16.40;;;;;;;;;;5033529;28;20136;-90
2021/08/30 01:02:50;;;;;;;34.30;17.52;;;;;;;;;;5034605;28;20131;-89
2021/08/30 01:05:18;;;;;;;29.67;16.48;;;;;;;;;;5035880;28;20053;-90
2021/08/30 01:08:09;;;;;;;33.88;16.88;;;;;;;;;;5036351;28;20083;-90
2021/08/30 01:11:02;;;;;;;31.00;16.50;;;;;;;;;;5033909;28;20045;-90
2021/08/30 01:13:33;;;;;;;30.75;15.40;;;;;;;;;;5052308;28;20532;-91
2021/08/30 01:16:04;;;;;;;37.95;16.45;;;;;;;;;;5035557;28;20041;-91
2021/08/30 01:18:33;;;;;;;24.45;15.18;;;;;;;;;;5035391;28;20497;-92
2021/08/30 01:21:19;;;;;;;29.00;15.18;;;;;;;;;;5030994;28;20049;-92
2021/08/30 01:24:06;;;;;;;33.35;15.98;;;;;;;;;;5029636;28;20136;-92
2021/08/30 01:26:55;;;;;;;25.52;15.23;;;;;;;;;;5036292;28;20553;-92
2021/08/30 01:29:28;;;;;;;35.13;15.52;;;;;;;;;;5035555;28;20115;-90
2021/08/30 01:32:02;;;;;;;28.95;16.02;;;;;;;;;;5055312;28;20119;-91
2021/08/30 01:34:30;;;;;;;29.80;16.77;;;;;;;;;;5031446;28;20136;-91
2021/08/30 01:36:58;;;;;;;28.80;16.27;;;;;;;;;;5050475;28;20452;-92
2021/08/30 01:39:30;;;;;;;31.60;16.08;;;;;;;;;;5025880;28;20136;-91
2021/08/30 01:42:05;;;;;;;30.88;15.48;;;;;;;;;;5034284;28;20124;-92
2021/08/30 01:44:32;;;;;;;36.88;16.73;;;;;;;;;;5035993;28;20136;-92
2021/08/30 01:46:59;;;;;;;29.00;16.05;;;;;;;;;;5040984;28;20456;-92
2021/08/30 01:49:29;;;;;;;30.88;15.32;;;;;;;;;;5025790;28;20752;-91
2021/08/30 01:51:56;;;;;;;31.45;15.45;;;;;;;;;;5020033;28;20045;-92
2021/08/30 01:54:25;;;;;;;31.90;15.20;;;;;;;;;;5035732;28;20132;-90
2021/08/30 01:56:55;;;;;;;27.40;15.38;;;;;;;;;;5057768;28;20132;-92
2021/08/30 02:02:09;;;;;;;28.17;14.07;;;;;;;;;;5054035;28;20477;-92
2021/08/30 02:04:36;;;;;;;29.73;14.80;;;;;;;;;;5030740;28;20052;-93
2021/08/30 02:07:04;;;;;;;25.13;14.20;;;;;;;;;;5030662;28;20130;-93
2021/08/30 02:09:32;;;;;;;29.10;14.65;;;;;;;;;;5015457;28;20084;-93
2021/08/30 02:11:59;;;;;;;24.65;13.43;;;;;;;;;;5021993;28;20127;-93
2021/08/30 02:14:29;;;;;;;32.00;15.20;;;;;;;;;;5029338;28;20128;-93
2021/08/30 02:17:00;;;;;;;25.27;13.90;;;;;;;;;;5044333;28;20049;-92
2021/08/30 02:19:31;;;;;;;28.27;15.07;;;;;;;;;;5035235;28;20076;-93
2021/08/30 02:22:03;;;;;;;27.17;14.27;;;;;;;;;;5029217;28;20482;-91
2021/08/30 02:24:42;;;;;;;30.65;15.45;;;;;;;;;;5032204;28;20089;-91
2021/08/30 02:27:14;;;;;;;27.85;14.18;;;;;;;;;;5050264;28;20095;-92
2021/08/30 02:29:47;;;;;;;28.27;14.80;;;;;;;;;;5031821;28;20142;-92
2021/08/30 02:32:18;;;;;;;28.63;13.70;;;;;;;;;;5037055;28;20136;-91
2021/08/30 02:34:54;;;;;;;24.45;13.45;;;;;;;;;;5051085;28;20105;-92
2021/08/30 02:37:25;;;;;;;25.75;14.27;;;;;;;;;;5052595;28;20542;-92
2021/08/30 02:39:53;;;;;;;27.70;13.93;;;;;;;;;;5053471;28;20080;-94
2021/08/30 02:42:22;;;;;;;25.33;13.93;;;;;;;;;;5046294;28;20050;-92
2021/08/30 02:44:49;;;;;;;22.75;13.18;;;;;;;;;;5035657;28;20056;-92
2021/08/30 02:47:17;;;;;;;24.38;12.82;;;;;;;;;;5053825;28;20052;-93
2021/08/30 02:49:46;;;;;;;26.75;14.20;;;;;;;;;;5035902;28;20045;-92
2021/08/30 02:52:18;;;;;;;25.45;13.45;;;;;;;;;;5035580;28;20083;-92
2021/08/30 02:54:46;;;;;;;24.73;13.30;;;;;;;;;;5035266;28;20053;-91
2021/08/30 02:57:14;;;;;;;27.38;13.10;;;;;;;;;;5034928;28;20064;-92
2021/08/30 02:59:42;;;;;;;24.90;13.38;;;;;;;;;;5035100;28;20068;-91
2021/08/30 03:02:10;;;;;;;21.70;12.32;;;;;;;;;;5035367;28;20076;-91
2021/08/30 03:04:38;;;;;;;24.50;13.55;;;;;;;;;;5031041;28;20170;-91
2021/08/30 03:07:06;;;;;;;23.40;14.02;;;;;;;;;;5034330;28;20045;-92
2021/08/30 03:09:33;;;;;;;24.38;13.50;;;;;;;;;;5034349;28;20124;-91
2021/08/30 03:12:02;;;;;;;28.80;12.75;;;;;;;;;;5053034;28;20481;-92
2021/08/30 03:14:29;;;;;;;23.30;13.15;;;;;;;;;;5035565;28;20131;-92
2021/08/30 03:16:59;;;;;;;22.25;13.13;;;;;;;;;;5035445;28;20584;-92
2021/08/30 03:19:27;;;;;;;22.23;13.15;;;;;;;;;;5053089;28;20048;-90
2021/08/30 03:22:03;;;;;;;25.48;13.43;;;;;;;;;;5034620;28;20053;-91
2021/08/30 03:24:31;;;;;;;26.17;12.23;;;;;;;;;;5025389;28;20109;-91
2021/08/30 03:26:59;;;;;;;23.25;12.98;;;;;;;;;;5061263;28;20049;-91
2021/08/30 03:29:27;;;;;;;22.08;12.68;;;;;;;;;;5039734;28;20055;-91
2021/08/30 03:31:57;;;;;;;22.40;13.80;;;;;;;;;;5039189;28;20107;-91
2021/08/30 03:34:24;;;;;;;24.92;13.07;;;;;;;;;;5037931;28;20132;-92
2021/08/30 03:36:52;;;;;;;28.08;13.07;;;;;;;;;;5038396;28;20092;-91
2021/08/30 03:39:19;;;;;;;23.80;12.60;;;;;;;;;;5038968;28;20478;-91
2021/08/30 03:41:56;;;;;;;18.40;11.45;;;;;;;;;;5038443;28;20077;-91
2021/08/30 03:44:24;;;;;;;17.85;11.77;;;;;;;;;;5038662;28;20057;-91
2021/08/30 03:46:55;;;;;;;23.48;11.88;;;;;;;;;;5037733;28;20540;-90
2021/08/30 03:49:24;;;;;;;23.80;11.70;;;;;;;;;;5038882;28;20085;-91
2021/08/30 03:51:52;;;;;;;17.65;10.88;;;;;;;;;;5039909;28;20461;-89
2021/08/30 03:54:21;;;;;;;18.50;10.80;;;;;;;;;;5043800;28;20048;-90
2021/08/30 03:56:48;;;;;;;21.15;11.55;;;;;;;;;;5036394;28;20049;-88
2021/08/30 03:59:16;;;;;;;20.38;10.82;;;;;;;;;;5055302;28;20228;-94
2021/08/30 04:01:44;;;;;;;24.17;11.18;;;;;;;;;;5056108;28;20041;-89
2021/08/30 04:04:17;;;;;;;20.02;10.63;;;;;;;;;;5031160;28;20776;-87
2021/08/30 04:06:47;;;;;;;21.70;10.88;;;;;;;;;;5035548;28;20088;-83
2021/08/30 04:09:20;;;;;;;22.35;11.00;;;;;;;;;;5034318;28;20084;-82
2021/08/30 04:11:50;;;;;;;21.85;11.07;;;;;;;;;;5051676;28;20072;-83
2021/08/30 04:14:23;;;;;;;21.15;11.65;;;;;;;;;;5052708;28;20128;-83
2021/08/30 04:16:51;;;;;;;21.67;11.45;;;;;;;;;;5035852;28;20103;-84
2021/08/30 04:19:18;;;;;;;23.75;11.52;;;;;;;;;;5035018;28;20053;-84
2021/08/30 04:21:45;;;;;;;21.67;11.18;;;;;;;;;;5034155;28;20082;-82
2021/08/30 04:24:14;;;;;;;17.45;10.20;;;;;;;;;;5034895;28;20053;-88
2021/08/30 04:26:41;;;;;;;17.95;10.52;;;;;;;;;;5052236;28;20080;-90
2021/08/30 04:29:09;;;;;;;18.85;9.57;;;;;;;;;;5054741;28;20143;-91
2021/08/30 04:31:40;;;;;;;17.33;10.68;;;;;;;;;;5036812;28;20700;-92
2021/08/30 04:34:07;;;;;;;18.73;9.98;;;;;;;;;;5052029;28;20049;-83
2021/08/30 04:36:34;;;;;;;19.33;10.05;;;;;;;;;;5032551;28;20135;-92
2021/08/30 04:39:01;;;;;;;18.92;10.30;;;;;;;;;;5036139;28;20127;-92
2021/08/30 04:41:29;;;;;;;21.17;10.63;;;;;;;;;;5048479;28;20118;-88
2021/08/30 04:44:02;;;;;;;17.60;10.20;;;;;;;;;;5051782;28;20124;-88
2021/08/30 04:46:29;;;;;;;24.48;9.90;;;;;;;;;;5052426;28;20096;-86
2021/08/30 04:49:04;;;;;;;17.35;10.15;;;;;;;;;;5043448;28;20081;-91
2021/08/30 04:51:31;;;;;;;20.38;9.88;;;;;;;;;;5024069;28;20090;-93
2021/08/30 04:53:58;;;;;;;20.88;9.95;;;;;;;;;;5040631;28;20597;-91
2021/08/30 04:56:26;;;;;;;16.70;9.90;;;;;;;;;;5054146;28;20079;-90
2021/08/30 04:58:53;;;;;;;21.50;10.35;;;;;;;;;;5035908;28;20080;-90
2021/08/30 05:01:21;;;;;;;19.55;10.02;;;;;;;;;;5054003;28;20132;-88
2021/08/30 05:03:49;;;;;;;21.55;10.52;;;;;;;;;;5051280;28;20049;-90
2021/08/30 05:06:16;;;;;;;18.85;9.77;;;;;;;;;;5032744;28;20124;-87
2021/08/30 05:08:44;;;;;;;29.00;10.80;;;;;;;;;;5060354;28;20092;-83
2021/08/30 05:11:11;;;;;;;17.48;9.68;;;;;;;;;;5035907;28;20718;-90
2021/08/30 05:13:38;;;;;;;19.00;9.38;;;;;;;;;;5027115;28;20045;-86
2021/08/30 05:16:07;;;;;;;19.98;10.27;;;;;;;;;;5035153;28;20116;-88
2021/08/30 05:18:36;;;;;;;22.17;10.65;;;;;;;;;;5052241;28;20190;-88
2021/08/30 05:21:07;;;;;;;16.08;9.73;;;;;;;;;;5034928;28;20654;-89
2021/08/30 05:23:34;;;;;;;20.80;10.23;;;;;;;;;;5033832;28;20135;-89
2021/08/30 05:26:01;;;;;;;18.33;10.10;;;;;;;;;;5038241;28;20430;-85
2021/08/30 05:28:29;;;;;;;20.17;9.73;;;;;;;;;;5032720;28;20136;-85
2021/08/30 05:30:59;;;;;;;16.67;9.23;;;;;;;;;;5046230;28;20761;-88
2021/08/30 05:33:26;;;;;;;14.57;9.90;;;;;;;;;;5049459;28;20125;-89
2021/08/30 05:35:54;;;;;;;20.02;9.23;;;;;;;;;;5034376;28;20140;-87
2021/08/30 05:38:21;;;;;;;18.83;8.65;;;;;;;;;;5035239;28;20057;-81
2021/08/30 05:40:48;;;;;;;17.60;9.38;;;;;;;;;;5033758;28;20565;-89
2021/08/30 05:43:15;;;;;;;16.80;9.43;;;;;;;;;;5041676;28;20088;-90
2021/08/30 05:45:42;;;;;;;19.17;9.60;;;;;;;;;;5025493;28;20072;-89
2021/08/30 05:48:09;;;;;;;18.67;9.32;;;;;;;;;;5070254;28;20080;-89
2021/08/30 05:50:41;;;;;;;19.67;9.18;;;;;;;;;;5043607;28;20049;-90
2021/08/30 05:53:08;;;;;;;17.50;10.10;;;;;;;;;;5026756;28;20083;-90
2021/08/30 05:55:35;;;;;;;16.05;9.52;;;;;;;;;;5042424;28;20041;-89
2021/08/30 05:58:03;;;;;;;16.70;9.75;;;;;;;;;;5046932;28;20131;-89
2021/08/30 06:00:30;;;;;;;24.88;9.75;;;;;;;;;;5030716;28;20102;-90
2021/08/30 06:02:58;;;;;;;21.35;10.38;;;;;;;;;;5065989;28;20044;-90
2021/08/30 06:05:25;;;;;;;18.67;9.68;;;;;;;;;;5051476;28;20081;-89
2021/08/30 06:07:54;;;;;;;16.33;9.85;;;;;;;;;;5024871;28;20052;-90
2021/08/30 06:10:21;;;;;;;15.77;8.52;;;;;;;;;;5049557;28;20084;-89
2021/08/30 06:12:48;;;;;;;16.75;9.57;;;;;;;;;;5050959;28;20132;-89
2021/08/30 06:15:16;;;;;;;17.52;9.15;;;;;;;;;;5051200;28;20124;-89
2021/08/30 06:17:43;;;;;;;19.63;9.50;;;;;;;;;;5051547;28;20076;-89
2021/08/30 06:20:10;;;;;;;20.05;9.35;;;;;;;;;;5028774;28;20131;-90
2021/08/30 06:22:38;;;;;;;19.38;9.60;;;;;;;;;;5023873;28;20517;-89
2021/08/30 06:25:05;;;;;;;19.02;8.82;;;;;;;;;;5027693;28;20781;-89
2021/08/30 06:27:32;;;;;;;14.55;8.65;;;;;;;;;;5027650;28;20143;-90
2021/08/30 06:29:59;;;;;;;19.83;8.65;;;;;;;;;;5047026;28;20061;-89
2021/08/30 06:32:27;;;;;;;18.77;9.00;;;;;;;;;;5050284;28;20084;-91
2021/08/30 06:34:54;;;;;;;18.77;9.15;;;;;;;;;;5054643;28;20812;-91
2021/08/30 06:37:21;;;;;;;22.88;9.05;;;;;;;;;;5030307;28;20085;-91
2021/08/30 06:39:56;;;;;;;20.98;9.70;;;;;;;;;;5032566;28;20717;-90
2021/08/30 06:42:23;;;;;;;19.45;9.27;;;;;;;;;;5021030;28;20076;-90
2021/08/30 06:44:50;;;;;;;16.88;8.82;;;;;;;;;;5048586;28;20045;-90
2021/08/30 06:47:19;;;;;;;20.10;8.68;;;;;;;;;;5028046;28;20644;-90
2021/08/30 06:49:46;;;;;;;18.83;8.98;;;;;;;;;;5048295;28;20083;-90
2021/08/30 06:52:13;;;;;;;20.85;9.02;;;;;;;;;;5049288;28;20607;-90
2021/08/30 06:54:50;;;;;;;18.83;9.25;;;;;;;;;;5042702;28;20051;-90
2021/08/30 06:57:17;;;;;;;19.92;9.80;;;;;;;;;;5038102;28;20079;-90
2021/08/30 06:59:44;;;;;;;21.85;10.65;;;;;;;;;;5047805;28;20132;-90
2021/08/30 07:02:11;;;;;;;19.48;9.02;;;;;;;;;;5036489;28;20092;-90
2021/08/30 07:04:39;;;;;;;17.95;9.40;;;;;;;;;;5043550;28;20059;-88
2021/08/30 07:07:06;;;;;;;21.17;9.48;;;;;;;;;;5038074;28;20049;-90
2021/08/30 07:09:34;;;;;;;20.27;9.00;;;;;;;;;;5037053;28;20137;-90
2021/08/30 07:12:03;;;;;;;19.65;10.50;;;;;;;;;;5033292;28;20128;-89
2021/08/30 07:14:31;;;;;;;21.85;8.80;;;;;;;;;;5055309;28;20128;-90
2021/08/30 07:16:59;;;;;;;17.27;9.98;;;;;;;;;;5037365;28;20088;-89
2021/08/30 07:19:26;;;;;;;16.58;9.40;;;;;;;;;;5028316;28;20071;-89
2021/08/30 07:22:01;;;;;;;23.80;10.48;;;;;;;;;;5037417;28;20137;-90
2021/08/30 07:24:28;;;;;;;;;;;;;;;;;;5063777;28;20140;-90
2021/08/30 07:26:56;;;;;;;18.13;9.57;;;;;;;;;;5043908;28;20150;-90
2021/08/30 07:29:23;;;;;;;14.20;9.45;;;;;;;;;;5067039;28;20315;-90
2021/08/30 07:31:50;;;;;;;19.48;10.20;;;;;;;;;;5056668;28;20110;-90
2021/08/30 07:34:19;;;;;;;17.98;9.85;;;;;;;;;;5061531;28;20136;-90
2021/08/30 07:36:46;;;;;;;23.13;10.35;;;;;;;;;;5054788;28;20068;-90
2021/08/30 07:39:14;;;;;;;19.75;10.07;;;;;;;;;;5037351;28;20084;-90
2021/08/30 07:41:49;;;;;;;17.27;10.20;;;;;;;;;;5054311;28;20076;-89
2021/08/30 07:44:16;;;;;;;24.45;10.90;;;;;;;;;;5054459;28;20466;-90
2021/08/30 07:46:43;;;;;;;18.42;10.35;;;;;;;;;;5055073;28;20596;-90
2021/08/30 07:49:10;;;;;;;22.92;10.40;;;;;;;;;;5058351;28;20106;-89
2021/08/30 07:51:39;;;;;;;18.67;10.73;;;;;;;;;;5039097;28;20132;-90
2021/08/30 07:54:08;;;;;;;22.35;11.15;;;;;;;;;;5044234;28;20072;-90
2021/08/30 07:56:40;;;;;;;20.63;10.80;;;;;;;;;;5054088;28;20489;-90
2021/08/30 07:59:10;;;;;;;21.02;10.07;;;;;;;;;;5066387;28;20104;-91
2021/08/30 08:01:39;;;;;;;19.05;10.43;;;;;;;;;;5042711;28;20080;-90
2021/08/30 08:04:07;;;;;;;20.10;10.20;;;;;;;;;;5050290;28;20060;-90
2021/08/30 08:06:34;;;;;;;22.73;10.98;;;;;;;;;;5033597;28;20053;-90
2021/08/30 08:09:02;;;;;;;18.48;10.30;;;;;;;;;;5036169;28;20110;-90
2021/08/30 08:11:29;;;;;;;20.40;9.65;;;;;;;;;;5053492;28;20041;-90
2021/08/30 08:13:56;;;;;;;22.50;10.07;;;;;;;;;;5036449;28;20049;-89
2021/08/30 08:16:23;;;;;;;18.17;9.40;;;;;;;;;;5036580;28;20098;-90
2021/08/30 08:18:53;;;;;;;21.70;9.80;;;;;;;;;;5054177;28;20151;-90
2021/08/30 08:21:23;;;;;;;23.48;10.73;;;;;;;;;;5036263;28;20462;-90
2021/08/30 08:23:50;;;;;;;22.42;10.20;;;;;;;;;;5036223;28;20106;-88
2021/08/30 08:26:17;;;;;;;18.95;10.07;;;;;;;;;;5037929;28;20514;-89
2021/08/30 08:28:45;;;;;;;18.10;10.23;;;;;;;;;;5058850;28;20041;-90
2021/08/30 08:31:12;;;;;;;15.45;9.20;;;;;;;;;;5040397;28;20049;-90
2021/08/30 08:33:39;;;;;;;21.73;9.20;;;;;;;;;;5035649;28;20080;-90
2021/08/30 08:36:06;;;;;;;14.68;8.52;;;;;;;;;;5036062;28;20128;-90
2021/08/30 08:38:35;;;;;;;15.70;8.82;;;;;;;;;;5053704;28;20114;-90
2021/08/30 08:41:03;;;;;;;14.00;8.30;;;;;;;;;;5035990;28;20056;-89
2021/08/30 08:43:30;;;;;;;14.38;8.50;;;;;;;;;;5035972;28;20045;-89
2021/08/30 08:45:58;;;;;;;15.15;7.90;;;;;;;;;;5036136;28;20091;-89
2021/08/30 08:48:25;;;;;;;13.60;7.72;;;;;;;;;;5035074;28;20081;-90
2021/08/30 08:50:53;;;;;;;17.23;7.90;;;;;;;;;;5036152;28;20069;-89
2021/08/30 08:53:21;;;;;;;15.70;8.35;;;;;;;;;;5037600;28;20083;-90
2021/08/30 08:55:48;;;;;;;17.27;8.18;;;;;;;;;;5041320;28;20076;-89
2021/08/30 08:58:21;;;;;;;16.73;8.77;;;;;;;;;;5047347;28;20071;-90
2021/08/30 09:01:02;;;;;;;18.38;8.90;;;;;;;;;;5064397;28;20179;-90
2021/08/30 09:03:30;;;;;;;20.48;8.63;;;;;;;;;;5035691;28;20049;-90
2021/08/30 09:06:02;;;;;;;15.05;7.47;;;;;;;;;;5035392;28;20052;-89
2021/08/30 09:08:32;;;;;;;12.98;6.80;;;;;;;;;;5047538;28;20137;-90
2021/08/30 09:11:01;;;;;;;15.65;7.53;;;;;;;;;;5016066;28;20072;-89
2021/08/30 09:13:32;;;;;;;14.55;7.20;;;;;;;;;;5068937;28;20132;-89
2021/08/30 09:15:59;;;;;;;12.85;7.32;;;;;;;;;;5034900;28;20592;-90
2021/08/30 09:18:31;;;;;;;13.55;6.50;;;;;;;;;;5048725;28;20552;-86
2021/08/30 09:21:07;;;;;;;12.68;6.45;;;;;;;;;;5032428;28;20041;-89
2021/08/30 09:23:35;;;;;;;11.98;6.32;;;;;;;;;;5038230;28;20049;-91
2021/08/30 09:26:02;;;;;;;11.10;6.03;;;;;;;;;;5053045;28;20091;-89
2021/08/30 09:28:32;;;;;;;13.77;6.15;;;;;;;;;;5046607;28;20064;-90
2021/08/30 09:31:00;;;;;;;7.57;5.93;;;;;;;;;;5057043;28;20507;-90
2021/08/30 09:33:28;;;;;;;12.32;5.97;;;;;;;;;;5052193;28;20676;-88
2021/08/30 09:35:55;;;;;;;10.73;6.45;;;;;;;;;;5052585;28;20468;-89
2021/08/30 09:38:23;;;;;;;13.13;6.60;;;;;;;;;;5052804;28;20072;-90
2021/08/30 09:41:11;;;;;;;13.90;6.40;;;;;;;;;;5027499;28;20140;-90
2021/08/30 09:43:38;;;;;;;10.88;6.63;;;;;;;;;;5044840;28;20095;-87
2021/08/30 09:46:08;;;;;;;14.90;6.20;;;;;;;;;;5034395;28;20084;-89
2021/08/30 09:48:35;;;;;;;14.70;7.03;;;;;;;;;;5044493;28;20088;-89
2021/08/30 09:51:06;;;;;;;18.63;7.40;;;;;;;;;;5034384;28;20049;-88
2021/08/30 09:53:49;;;;;;;15.60;7.07;;;;;;;;;;5052996;28;20074;-90
2021/08/30 09:56:16;;;;;;;11.40;6.75;;;;;;;;;;5038401;28;20578;-90
2021/08/30 09:58:46;;;;;;;13.40;7.70;;;;;;;;;;5046132;28;20079;-89
2021/08/30 10:01:17;;;;;;;15.45;7.45;;;;;;;;;;5039539;28;20091;-89
2021/08/30 10:03:45;;;;;;;20.23;7.07;;;;;;;;;;5049121;28;20132;-90
2021/08/30 10:06:12;;;;;;;15.20;8.55;;;;;;;;;;5028468;28;20163;-90
2021/08/30 10:08:40;;;;;;;18.00;8.38;;;;;;;;;;5032975;28;20080;-90
2021/08/30 10:11:07;;;;;;;16.60;7.35;;;;;;;;;;5052154;28;20419;-90
2021/08/30 10:13:40;;;;;;;12.70;8.15;;;;;;;;;;5034087;28;20053;-89
2021/08/30 10:16:07;;;;;;;20.10;8.20;;;;;;;;;;5048953;28;20135;-90
2021/08/30 10:18:35;;;;;;;17.60;8.23;;;;;;;;;;5046510;28;20080;-89
2021/08/30 10:21:13;;;;;;;16.88;8.50;;;;;;;;;;5052268;28;20053;-89
2021/08/30 10:23:41;;;;;;;16.08;9.10;;;;;;;;;;5055143;28;20124;-89
2021/08/30 10:26:11;;;;;;;13.27;7.88;;;;;;;;;;5038468;28;20093;-89
2021/08/30 10:28:43;;;;;;;24.15;8.18;;;;;;;;;;5034550;28;20136;-90
2021/08/30 10:31:17;;;;;;;12.90;7.50;;;;;;;;;;5051323;28;20072;-90
2021/08/30 10:33:47;;;;;;;16.75;7.82;;;;;;;;;;5032939;28;20713;-89
2021/08/30 10:36:15;;;;;;;13.52;7.18;;;;;;;;;;5034311;28;20139;-89
2021/08/30 10:38:42;;;;;;;20.25;7.93;;;;;;;;;;5052093;28;20076;-89
2021/08/30 10:41:17;;;;;;;12.48;7.00;;;;;;;;;;5033531;28;20080;-89
2021/08/30 10:43:45;;;;;;;16.97;8.17;;;;;;;;;;5051593;28;20838;-90
2021/08/30 10:46:16;;;;;;;16.23;8.10;;;;;;;;;;5033877;28;20099;-89
2021/08/30 10:48:51;;;;;;;19.92;8.35;;;;;;;;;;5066731;28;20136;-88
2021/08/30 10:51:18;;;;;;;;;;;;;;;;;;5058134;28;20084;-90
2021/08/30 10:53:58;;;;;;;14.55;7.70;;;;;;;;;;5047276;28;19971;-90
2021/08/30 10:56:26;;;;;;;12.90;7.43;;;;;;;;;;5042441;28;20481;-89
2021/08/30 10:58:56;;;;;;;15.30;8.60;;;;;;;;;;5063879;28;20049;-90
2021/08/30 11:01:23;;;;;;;14.32;7.25;;;;;;;;;;5059844;28;20049;-90
2021/08/30 11:03:55;;;;;;;16.95;7.90;;;;;;;;;;5050685;28;20044;-90
2021/08/30 11:06:22;;;;;;;15.00;7.55;;;;;;;;;;5051404;28;20084;-89
2021/08/30 11:08:49;;;;;;;15.55;8.07;;;;;;;;;;5033823;28;20049;-89
2021/08/30 11:11:16;;;;;;;14.48;8.27;;;;;;;;;;5033891;28;20049;-90
2021/08/30 11:13:55;;;;;;;16.73;8.35;;;;;;;;;;5030469;28;20049;-89
2021/08/30 11:16:23;;;;;;;18.25;7.90;;;;;;;;;;5034044;28;20080;-90
2021/08/30 11:18:51;;;;;;;16.52;8.35;;;;;;;;;;5041801;28;20121;-90
2021/08/30 11:21:34;;;;;;;16.90;8.02;;;;;;;;;;5050990;28;20104;-89
2021/08/30 11:24:02;;;;;;;18.40;8.32;;;;;;;;;;5028184;28;20501;-90
2021/08/30 11:26:29;;;;;;;18.05;8.85;;;;;;;;;;5046453;28;20810;-89
2021/08/30 11:28:57;;;;;;;14.27;8.57;;;;;;;;;;5063006;28;20092;-88
2021/08/30 11:31:27;;;;;;;17.67;8.50;;;;;;;;;;5040119;28;20084;-89
2021/08/30 11:33:54;;;;;;;17.15;7.97;;;;;;;;;;5028090;28;20827;-89
2021/08/30 11:36:21;;;;;;;16.05;8.77;;;;;;;;;;5027064;28;20045;-88
2021/08/30 11:38:55;;;;;;;17.30;9.07;;;;;;;;;;5047931;28;20124;-88
2021/08/30 11:41:23;;;;;;;14.98;8.70;;;;;;;;;;5033527;28;20076;-90
2021/08/30 11:44:02;;;;;;;14.07;8.65;;;;;;;;;;5047060;28;20085;-89
2021/08/30 11:46:29;;;;;;;17.65;8.57;;;;;;;;;;5026550;28;20646;-89
2021/08/30 11:48:57;;;;;;;14.32;7.50;;;;;;;;;;5054598;28;20474;-88
2021/08/30 11:51:26;;;;;;;17.33;8.52;;;;;;;;;;5054907;28;20486;-89
2021/08/30 11:53:53;;;;;;;17.52;8.80;;;;;;;;;;5058847;28;20045;-89
2021/08/30 11:56:23;;;;;;;16.67;8.05;;;;;;;;;;5048185;28;20115;-89
2021/08/30 11:58:50;;;;;;;17.55;8.38;;;;;;;;;;5038483;28;20132;-90
2021/08/30 12:01:19;;;;;;;21.38;9.32;;;;;;;;;;5037837;28;20123;-88
2021/08/30 12:03:46;;;;;;;14.50;8.02;;;;;;;;;;5054194;28;20045;-89
2021/08/30 12:06:17;;;;;;;13.50;8.15;;;;;;;;;;5035952;28;20097;-90
2021/08/30 12:08:51;;;;;;;17.80;8.65;;;;;;;;;;5032333;28;20057;-90
2021/08/30 12:11:23;;;;;;;16.17;8.60;;;;;;;;;;5033016;28;20109;-89
2021/08/30 12:16:21;;;;;;;22.05;8.68;;;;;;;;;;5053875;28;20045;-89
2021/08/30 12:18:49;;;;;;;16.50;9.10;;;;;;;;;;5054029;28;20053;-90
2021/08/30 12:21:27;;;;;;;20.02;10.68;;;;;;;;;;5036282;28;20076;-90
2021/08/30 12:23:57;;;;;;;25.00;10.20;;;;;;;;;;5055759;28;20071;-89
2021/08/30 12:26:25;;;;;;;20.92;10.20;;;;;;;;;;5037302;28;20140;-87
2021/08/30 12:28:54;;;;;;;16.55;10.60;;;;;;;;;;5052158;28;20115;-90
2021/08/30 12:31:25;;;;;;;23.25;12.45;;;;;;;;;;5034289;28;20069;-92
2021/08/30 12:34:03;;;;;;;24.52;10.45;;;;;;;;;;5035664;28;20145;-92
2021/08/30 12:36:30;;;;;;;30.90;10.55;;;;;;;;;;5049475;28;20083;-91
2021/08/30 12:38:57;;;;;;;18.13;9.13;;;;;;;;;;5048333;28;20080;-93
2021/08/30 12:41:25;;;;;;;12.98;8.10;;;;;;;;;;5036926;28;20132;-92
2021/08/30 12:43:52;;;;;;;13.30;7.15;;;;;;;;;;5037356;28;20131;-92
2021/08/30 12:46:19;;;;;;;10.43;7.63;;;;;;;;;;5036889;28;20076;-89
2021/08/30 12:48:46;;;;;;;17.75;7.28;;;;;;;;;;5053427;28;20132;-90
2021/08/30 12:51:14;;;;;;;14.55;7.78;;;;;;;;;;5034642;28;20057;-88
2021/08/30 12:53:42;;;;;;;14.63;7.88;;;;;;;;;;5017422;28;20111;-91
2021/08/30 12:56:09;;;;;;;15.30;9.10;;;;;;;;;;5065390;28;20044;-91
2021/08/30 12:58:37;;;;;;;16.25;8.77;;;;;;;;;;5052811;28;20091;-90
2021/08/30 13:01:09;;;;;;;14.75;8.98;;;;;;;;;;5035393;28;20160;-89
2021/08/30 13:03:38;;;;;;;15.52;8.75;;;;;;;;;;5052486;28;20067;-90
2021/08/30 13:06:05;;;;;;;17.08;9.82;;;;;;;;;;5034224;28;20084;-89
2021/08/30 13:08:38;;;;;;;16.70;8.43;;;;;;;;;;5035805;28;20375;-89
2021/08/30 13:11:05;;;;;;;13.55;8.13;;;;;;;;;;5036918;28;20060;-88
2021/08/30 13:13:32;;;;;;;15.90;9.35;;;;;;;;;;5035109;28;20402;-90
2021/08/30 13:15:59;;;;;;;20.50;9.77;;;;;;;;;;5034849;28;20049;-89
2021/08/30 13:18:27;;;;;;;15.10;7.95;;;;;;;;;;5052884;28;20045;-89
2021/08/30 13:20:55;;;;;;;13.43;8.50;;;;;;;;;;5036670;28;20462;-89
2021/08/30 13:23:22;;;;;;;18.25;8.90;;;;;;;;;;5058030;28;20068;-88
2021/08/30 13:26:02;;;;;;;14.60;8.15;;;;;;;;;;5052723;28;20863;-87
2021/08/30 13:28:29;;;;;;;16.10;9.05;;;;;;;;;;5040107;28;20148;-87
2021/08/30 13:30:56;;;;;;;16.80;7.65;;;;;;;;;;5030831;28;20564;-87
2021/08/30 13:33:42;;;;;;;15.82;8.43;;;;;;;;;;5016733;28;20466;-87
2021/08/30 13:36:09;;;;;;;15.13;8.82;;;;;;;;;;5043544;28;20132;-87
2021/08/30 13:38:37;;;;;;;13.07;7.97;;;;;;;;;;5035015;28;20103;-88
2021/08/30 13:41:04;;;;;;;14.35;7.85;;;;;;;;;;5034985;28;20061;-87
2021/08/30 13:43:31;;;;;;;11.98;6.80;;;;;;;;;;5052746;28;20076;-88
2021/08/30 13:45:58;;;;;;;13.23;7.78;;;;;;;;;;5053040;28;20128;-88
2021/08/30 13:48:26;;;;;;;14.63;7.68;;;;;;;;;;5035173;28;20067;-88
2021/08/30 13:50:53;;;;;;;20.17;7.95;;;;;;;;;;5035175;28;20076;-90
2021/08/30 13:53:20;;;;;;;20.85;7.43;;;;;;;;;;5052160;28;20056;-88
2021/08/30 13:55:47;;;;;;;15.30;7.45;;;;;;;;;;5022676;28;20482;-85
2021/08/30 13:58:14;;;;;;;18.40;7.80;;;;;;;;;;5034162;28;20728;-82
2021/08/30 14:00:42;;;;;;;14.60;7.22;;;;;;;;;;5054457;28;20124;-89
2021/08/30 14:03:10;;;;;;;32.03;9.15;;;;;;;;;;5050874;28;20052;-81
2021/08/30 14:05:37;;;;;;;13.98;8.00;;;;;;;;;;5024401;28;20164;-82
2021/08/30 14:08:04;;;;;;;18.35;7.10;;;;;;;;;;5048890;28;20453;-83
2021/08/30 14:10:32;;;;;;;13.70;7.03;;;;;;;;;;5050780;28;20543;-81
2021/08/30 14:12:59;;;;;;;20.83;8.30;;;;;;;;;;5033202;28;20065;-83
2021/08/30 14:15:26;;;;;;;15.48;7.43;;;;;;;;;;5030992;28;20143;-82
2021/08/30 14:17:53;;;;;;;11.52;7.28;;;;;;;;;;5031824;28;20581;-84
2021/08/30 14:20:22;;;;;;;18.02;7.47;;;;;;;;;;5049345;28;20439;-81
2021/08/30 14:22:57;;;;;;;16.55;7.00;;;;;;;;;;5044774;28;20128;-82
2021/08/30 14:25:29;;;;;;;13.13;7.40;;;;;;;;;;5030097;28;20127;-82
2021/08/30 14:27:57;;;;;;;14.02;7.78;;;;;;;;;;5027848;28;20076;-84
2021/08/30 14:30:32;;;;;;;16.92;7.43;;;;;;;;;;5053068;28;20629;-85
2021/08/30 14:32:59;;;;;;;15.38;7.68;;;;;;;;;;5028310;28;20056;-84
2021/08/30 14:35:27;;;;;;;15.70;7.18;;;;;;;;;;5047989;28;20091;-82
2021/08/30 14:37:54;;;;;;;12.27;6.88;;;;;;;;;;5044251;28;20049;-82
2021/08/30 14:40:24;;;;;;;16.25;8.25;;;;;;;;;;5040043;28;20120;-84
2021/08/30 14:42:55;;;;;;;17.33;6.95;;;;;;;;;;5024230;28;20103;-81